Time;durP1;ratioP1;P1;durP2;ratioP2;P2;SDS_P1;SDS_P2;PMS_P1;PMS_P2;Temp;Humidity;BMP_temperature;BMP_pressure;BME280_temperature;BME280_humidity;BME280_pressure;Samples;Min_cycle;Max_cycle;Signal;HPM_P1;HPM_P2
2021/11/04 00:02:04;;;;;;;;;;;6.90;99.90;;;;;;5050448;28;19920;-71
2021/11/04 00:04:29;;;;;;;;;;;6.80;99.90;;;;;;5070005;28;19948;-71
2021/11/04 00:06:55;;;;;;;;;;;7.00;99.90;;;;;;5068668;28;19913;-71
2021/11/04 00:09:20;;;;;;;;;;;7.00;99.90;;;;;;5051681;28;20276;-70
2021/11/04 00:11:46;;;;;;;;;;;7.00;99.90;;;;;;5060710;28;20083;-70
2021/11/04 00:14:11;;;;;;;;;;;7.00;99.90;;;;;;5051902;28;19920;-70
2021/11/04 00:16:37;;;;;;;;;;;6.90;99.90;;;;;;5069687;28;19959;-70
2021/11/04 00:19:03;;;;;;;;;;;6.90;99.90;;;;;;5068259;28;19922;-70
2021/11/04 00:21:28;;;;;;;;;;;7.10;99.90;;;;;;5065493;28;20356;-70
2021/11/04 00:23:54;;;;;;;;;;;7.10;99.90;;;;;;5069205;28;19915;-70
2021/11/04 00:26:19;;;;;;;;;;;7.00;99.90;;;;;;5051608;28;19920;-70
2021/11/04 00:28:45;;;;;;;;;;;7.00;99.90;;;;;;5046188;28;19913;-70
2021/11/04 00:31:12;;;;;;;;;;;7.10;99.90;;;;;;5067033;28;19943;-70
2021/11/04 00:33:38;;;;;;;;;;;7.00;99.90;;;;;;5069097;28;20430;-70
2021/11/04 00:36:03;;;;;;;;;;;6.90;99.90;;;;;;5050663;28;20351;-70
2021/11/04 00:38:29;;;;;;;;;;;6.90;99.90;;;;;;5051938;28;19924;-70
2021/11/04 00:40:55;;;;;;;;;;;6.90;99.90;;;;;;5068691;28;20228;-70
2021/11/04 00:43:21;;;;;;;;;;;7.00;99.90;;;;;;5069273;28;19917;-70
2021/11/04 00:45:46;;;;;;;;;;;7.10;99.90;;;;;;5050666;28;20450;-70
2021/11/04 00:48:12;;;;;;;;;;;7.10;99.90;;;;;;5069331;28;19912;-70
2021/11/04 00:50:37;;;;;;;;;;;7.10;99.90;;;;;;5047963;28;19920;-70
2021/11/04 00:53:03;;;;;;;;;;;7.10;99.90;;;;;;5069099;28;19913;-71
2021/11/04 00:55:29;;;;;;;;;;;7.30;99.90;;;;;;5068422;28;20295;-71
2021/11/04 00:57:54;;;;;;;;;;;7.30;99.90;;;;;;5065250;28;19923;-71
2021/11/04 01:00:20;;;;;;;;;;;7.30;99.90;;;;;;5062856;28;20342;-71
2021/11/04 01:02:45;;;;;;;;;;;7.20;99.90;;;;;;5060884;28;20041;-71
2021/11/04 01:05:11;;;;;;;;;;;7.20;99.90;;;;;;5068632;28;20378;-71
2021/11/04 01:07:37;;;;;;;;;;;7.10;99.90;;;;;;5050633;28;20043;-71
2021/11/04 01:10:03;;;;;;;;;;;7.10;99.90;;;;;;5063358;28;19999;-71
2021/11/04 01:12:28;;;;;;;;;;;7.10;99.90;;;;;;5047879;28;19917;-70
2021/11/04 01:14:54;;;;;;;;;;;6.90;99.90;;;;;;5068784;28;19973;-70
2021/11/04 01:17:19;;;;;;;;;;;7.00;99.90;;;;;;5066292;28;19924;-71
2021/11/04 01:19:45;;;;;;;;;;;6.90;99.90;;;;;;5050229;28;19912;-71
2021/11/04 01:22:10;;;;;;;;;;;7.10;99.90;;;;;;5050018;28;19958;-71
2021/11/04 01:24:36;;;;;;;;;;;7.10;99.90;;;;;;5044528;28;19987;-71
2021/11/04 01:27:01;;;;;;;;;;;7.00;99.90;;;;;;5066216;28;20300;-71
2021/11/04 01:29:27;;;;;;;;;;;6.90;99.90;;;;;;5062487;28;19997;-71
2021/11/04 01:31:52;;;;;;;;;;;7.10;99.90;;;;;;5067008;28;19917;-71
2021/11/04 01:34:18;;;;;;;;;;;7.00;99.90;;;;;;5066652;28;19929;-70
2021/11/04 01:36:43;;;;;;;;;;;6.90;99.90;;;;;;5065343;28;19923;-70
2021/11/04 01:39:09;;;;;;;;;;;7.00;99.90;;;;;;5047690;28;20272;-71
2021/11/04 01:41:34;;;;;;;;;;;7.00;99.90;;;;;;5063405;28;19912;-70
2021/11/04 01:44:00;;;;;;;;;;;7.10;99.90;;;;;;5063870;28;19912;-70
2021/11/04 01:46:26;;;;;;;;;;;7.00;99.90;;;;;;5048850;28;19912;-70
2021/11/04 01:48:51;;;;;;;;;;;7.00;99.90;;;;;;5062187;28;20047;-71
2021/11/04 01:51:18;;;;;;;;;;;6.90;99.90;;;;;;5050156;28;19919;-71
2021/11/04 01:53:44;;;;;;;;;;;7.00;99.90;;;;;;5065806;28;19916;-70
2021/11/04 01:56:09;;;;;;;;;;;6.90;99.90;;;;;;5068567;28;19912;-70
2021/11/04 01:58:35;;;;;;;;;;;7.10;99.90;;;;;;5059015;28;19987;-70
2021/11/04 02:01:00;;;;;;;;;;;7.00;99.90;;;;;;5061714;28;19913;-70
2021/11/04 02:03:42;;;;;;;;;;;6.90;99.90;;;;;;5059494;28;19994;-70
2021/11/04 02:06:13;;;;;;;;;;;6.80;99.90;;;;;;5068170;28;19913;-70
2021/11/04 02:09:01;;;;;;;;;;;7.00;99.90;;;;;;5056572;28;20373;-70
2021/11/04 02:11:32;;;;;;;;;;;7.00;99.90;;;;;;5048527;28;20294;-71
2021/11/04 02:13:59;;;;;;;;;;;7.00;99.90;;;;;;5046419;28;19927;-70
2021/11/04 02:16:26;;;;;;;;;;;7.10;99.90;;;;;;5050359;28;19952;-70
2021/11/04 02:18:53;;;;;;;;;;;7.00;99.90;;;;;;5065882;28;20276;-71
2021/11/04 02:21:21;;;;;;;;;;;7.00;99.90;;;;;;5068076;28;20386;-70
2021/11/04 02:23:59;;;;;;;;;;;7.00;99.90;;;;;;5067081;28;20389;-70
2021/11/04 02:26:26;;;;;;;;;;;7.00;99.90;;;;;;5067559;28;19913;-70
2021/11/04 02:28:52;;;;;;;;;;;7.00;99.90;;;;;;5064034;28;19915;-71
2021/11/04 02:31:18;;;;;;;;;;;7.10;99.90;;;;;;5065969;28;19967;-70
2021/11/04 02:33:43;;;;;;;;;;;7.00;99.90;;;;;;5066904;28;19955;-70
2021/11/04 02:36:10;;;;;;;;;;;7.00;99.90;;;;;;5065635;28;19955;-70
2021/11/04 02:38:36;;;;;;;;;;;7.00;99.90;;;;;;5063378;28;20003;-70
2021/11/04 02:41:03;;;;;;;;;;;6.90;99.90;;;;;;5060494;28;20359;-70
2021/11/04 02:43:30;;;;;;;;;;;6.90;99.90;;;;;;5063499;28;19928;-71
2021/11/04 02:45:55;;;;;;;;;;;6.80;99.90;;;;;;5067750;28;19917;-71
2021/11/04 02:48:21;;;;;;;;;;;6.90;99.90;;;;;;5063166;28;19982;-71
2021/11/04 02:50:47;;;;;;;;;;;7.00;99.90;;;;;;5055856;28;19917;-70
2021/11/04 02:53:16;;;;;;;;;;;6.90;99.90;;;;;;5067993;28;19963;-70
2021/11/04 02:55:42;;;;;;;;;;;6.90;99.90;;;;;;5049938;28;20387;-70
2021/11/04 02:58:09;;;;;;;;;;;6.90;99.90;;;;;;5053619;28;20299;-70
2021/11/04 03:00:36;;;;;;;;;;;6.90;99.90;;;;;;5060977;28;20229;-70
2021/11/04 03:03:02;;;;;;;;;;;7.00;99.90;;;;;;5057971;28;19913;-71
2021/11/04 03:05:27;;;;;;;;;;;6.90;99.90;;;;;;5051280;28;19920;-70
2021/11/04 03:07:53;;;;;;;;;;;7.00;99.90;;;;;;5071294;28;19912;-70
2021/11/04 03:10:19;;;;;;;;;;;7.00;99.90;;;;;;5052184;28;19909;-70
2021/11/04 03:12:45;;;;;;;;;;;6.90;99.90;;;;;;5063887;28;19918;-70
2021/11/04 03:15:14;;;;;;;;;;;7.00;99.90;;;;;;5070208;28;19916;-70
2021/11/04 03:17:40;;;;;;;;;;;6.90;99.90;;;;;;5069700;28;19917;-70
2021/11/04 03:20:06;;;;;;;;;;;7.10;99.90;;;;;;5053048;28;19917;-70
2021/11/04 03:22:32;;;;;;;;;;;7.10;99.90;;;;;;5068224;28;19912;-70
2021/11/04 03:24:58;;;;;;;;;;;7.10;99.90;;;;;;5052143;28;20082;-70
2021/11/04 03:27:24;;;;;;;;;;;7.10;99.90;;;;;;5068254;28;20239;-70
2021/11/04 03:29:50;;;;;;;;;;;7.00;99.90;;;;;;5068880;28;19917;-70
2021/11/04 03:32:17;;;;;;;;;;;7.00;99.90;;;;;;5061165;28;19908;-70
2021/11/04 03:34:43;;;;;;;;;;;7.00;99.90;;;;;;5069571;28;19924;-70
2021/11/04 03:37:11;;;;;;;;;;;7.00;99.90;;;;;;5067285;28;19955;-70
2021/11/04 03:39:37;;;;;;;;;;;6.90;99.90;;;;;;5070693;28;19948;-70
2021/11/04 03:42:03;;;;;;;;;;;7.00;99.90;;;;;;5069507;28;20205;-70
2021/11/04 03:44:29;;;;;;;;;;;7.00;99.90;;;;;;5052602;28;20278;-70
2021/11/04 03:46:56;;;;;;;;;;;7.00;99.90;;;;;;5069605;28;19912;-70
2021/11/04 03:49:23;;;;;;;;;;;7.00;99.90;;;;;;5068622;28;19908;-70
2021/11/04 03:51:49;;;;;;;;;;;7.10;99.90;;;;;;5048678;28;20380;-70
2021/11/04 03:54:21;;;;;;;;;;;7.00;99.90;;;;;;5069455;28;19913;-70
2021/11/04 03:56:47;;;;;;;;;;;7.10;99.90;;;;;;5065380;28;20257;-70
2021/11/04 03:59:12;;;;;;;;;;;7.00;99.90;;;;;;5046051;28;20015;-70
2021/11/04 04:01:38;;;;;;;;;;;7.10;99.90;;;;;;5070097;28;19926;-70
2021/11/04 04:04:03;;;;;;;;;;;7.10;99.90;;;;;;5069733;28;19913;-70
2021/11/04 04:06:29;;;;;;;;;;;7.10;99.90;;;;;;5063115;28;19912;-70
2021/11/04 04:08:55;;;;;;;;;;;7.00;99.90;;;;;;5050573;28;20277;-70
2021/11/04 04:11:22;;;;;;;;;;;7.10;99.90;;;;;;5070447;28;19916;-70
2021/11/04 04:13:50;;;;;;;;;;;6.90;99.90;;;;;;5051196;28;20320;-70
2021/11/04 04:16:16;;;;;;;;;;;6.90;99.90;;;;;;5051423;28;20364;-70
2021/11/04 04:18:42;;;;;;;;;;;7.00;99.90;;;;;;5060273;28;19919;-70
2021/11/04 04:21:07;;;;;;;;;;;7.00;99.90;;;;;;5067877;28;19921;-70
2021/11/04 04:23:33;;;;;;;;;;;6.90;99.90;;;;;;5069968;28;20415;-70
2021/11/04 04:25:58;;;;;;;;;;;7.00;99.90;;;;;;5068606;28;19974;-70
2021/11/04 04:28:24;;;;;;;;;;;7.10;99.90;;;;;;5050923;28;19912;-69
2021/11/04 04:30:49;;;;;;;;;;;7.00;99.90;;;;;;5063782;28;19912;-70
2021/11/04 04:33:15;;;;;;;;;;;6.80;99.90;;;;;;5064151;28;20003;-70
2021/11/04 04:35:40;;;;;;;;;;;6.90;99.90;;;;;;5068379;28;19921;-70
2021/11/04 04:38:06;;;;;;;;;;;6.90;99.90;;;;;;5061657;28;19920;-70
2021/11/04 04:40:32;;;;;;;;;;;6.90;99.90;;;;;;5067369;28;19939;-70
2021/11/04 04:42:57;;;;;;;;;;;6.90;99.90;;;;;;5063246;28;19923;-70
2021/11/04 04:45:22;;;;;;;;;;;6.90;99.90;;;;;;5064418;28;19920;-70
2021/11/04 04:47:48;;;;;;;;;;;6.90;99.90;;;;;;5050738;28;20431;-70
2021/11/04 04:50:13;;;;;;;;;;;6.80;99.90;;;;;;5067477;28;19913;-70
2021/11/04 04:52:41;;;;;;;;;;;6.80;99.90;;;;;;5066870;28;19923;-70
2021/11/04 04:55:07;;;;;;;;;;;6.80;99.90;;;;;;5065242;28;19916;-70
2021/11/04 04:57:33;;;;;;;;;;;6.90;99.90;;;;;;5067656;28;19913;-70
2021/11/04 04:59:59;;;;;;;;;;;6.80;99.90;;;;;;5068749;28;20279;-70
2021/11/04 05:02:25;;;;;;;;;;;6.80;99.90;;;;;;5068900;28;19973;-70
2021/11/04 05:04:50;;;;;;;;;;;6.80;99.90;;;;;;5065514;28;20466;-70
2021/11/04 05:07:16;;;;;;;;;;;6.80;99.90;;;;;;5067897;28;19938;-70
2021/11/04 05:09:42;;;;;;;;;;;6.80;99.90;;;;;;5065145;28;20377;-70
2021/11/04 05:12:08;;;;;;;;;;;6.80;99.90;;;;;;5065295;28;19913;-70
2021/11/04 05:14:34;;;;;;;;;;;6.80;99.90;;;;;;5061472;28;19920;-70
2021/11/04 05:16:59;;;;;;;;;;;6.70;99.90;;;;;;5067528;28;19909;-70
2021/11/04 05:19:25;;;;;;;;;;;6.70;99.90;;;;;;5065582;28;19991;-70
2021/11/04 05:21:50;;;;;;;;;;;6.70;99.90;;;;;;5071231;28;20280;-70
2021/11/04 05:24:16;;;;;;;;;;;6.70;99.90;;;;;;5066187;28;19931;-71
2021/11/04 05:26:41;;;;;;;;;;;6.70;99.90;;;;;;5064634;28;19955;-70
2021/11/04 05:29:07;;;;;;;;;;;6.70;99.90;;;;;;5064606;28;19997;-70
2021/11/04 05:31:32;;;;;;;;;;;6.50;99.90;;;;;;5063089;28;20009;-70
2021/11/04 05:33:58;;;;;;;;;;;6.60;99.90;;;;;;5064117;28;19986;-70
2021/11/04 05:36:24;;;;;;;;;;;6.60;99.90;;;;;;5063958;28;20229;-70
2021/11/04 05:38:50;;;;;;;;;;;6.60;99.90;;;;;;5046687;28;19912;-70
2021/11/04 05:41:16;;;;;;;;;;;6.70;99.90;;;;;;5046219;28;19999;-69
2021/11/04 05:43:41;;;;;;;;;;;6.80;99.90;;;;;;5062686;28;19936;-69
2021/11/04 05:46:07;;;;;;;;;;;6.70;99.90;;;;;;5048548;28;19921;-69
2021/11/04 05:48:32;;;;;;;;;;;6.60;99.90;;;;;;5047164;28;20318;-70
2021/11/04 05:50:58;;;;;;;;;;;6.70;99.90;;;;;;5067724;28;20015;-70
2021/11/04 05:53:23;;;;;;;;;;;6.60;99.90;;;;;;5065013;28;19913;-70
2021/11/04 05:55:53;;;;;;;;;;;6.60;99.90;;;;;;5061429;28;19916;-70
2021/11/04 05:58:18;;;;;;;;;;;6.50;99.90;;;;;;5044485;28;19975;-70
2021/11/04 06:00:44;;;;;;;;;;;6.60;99.90;;;;;;5059309;28;19920;-70
2021/11/04 06:03:12;;;;;;;;;;;6.70;99.90;;;;;;5066973;28;19916;-70
2021/11/04 06:05:38;;;;;;;;;;;6.60;99.90;;;;;;5064873;28;19954;-70
2021/11/04 06:08:03;;;;;;;;;;;6.70;99.90;;;;;;5065876;28;19916;-70
2021/11/04 06:10:29;;;;;;;;;;;6.70;99.90;;;;;;5059695;28;19937;-70
2021/11/04 06:12:54;;;;;;;;;;;6.70;99.90;;;;;;5060941;28;19917;-70
2021/11/04 06:15:20;;;;;;;;;;;6.70;99.90;;;;;;5057631;28;20353;-70
2021/11/04 06:17:45;;;;;;;;;;;6.60;99.90;;;;;;5063522;28;20304;-70
2021/11/04 06:20:11;;;;;;;;;;;6.70;99.90;;;;;;5060982;28;20284;-70
2021/11/04 06:22:36;;;;;;;;;;;6.60;99.90;;;;;;5046977;28;19916;-70
2021/11/04 06:25:03;;;;;;;;;;;6.50;99.90;;;;;;5063436;28;20019;-70
2021/11/04 06:27:29;;;;;;;;;;;6.60;99.90;;;;;;5061509;28;19920;-70
2021/11/04 06:29:54;;;;;;;;;;;6.60;99.90;;;;;;5064866;28;19908;-69
2021/11/04 06:32:21;;;;;;;;;;;6.60;99.90;;;;;;5053014;28;20391;-69
2021/11/04 06:34:46;;;;;;;;;;;6.60;99.90;;;;;;5053055;28;20367;-70
2021/11/04 06:37:12;;;;;;;;;;;6.60;99.90;;;;;;5063722;28;19927;-70
2021/11/04 06:39:37;;;;;;;;;;;6.60;99.90;;;;;;5051282;28;20136;-70
2021/11/04 06:42:03;;;;;;;;;;;6.50;99.90;;;;;;5063522;28;19917;-70
2021/11/04 06:44:28;;;;;;;;;;;6.50;99.90;;;;;;5065156;28;19931;-70
2021/11/04 06:46:57;;;;;;;;;;;6.50;99.90;;;;;;5068315;28;19915;-70
2021/11/04 06:49:24;;;;;;;;;;;6.50;99.90;;;;;;5065816;28;20348;-70
2021/11/04 06:51:51;;;;;;;;;;;6.50;99.90;;;;;;5065770;28;19920;-70
2021/11/04 06:54:17;;;;;;;;;;;6.40;99.90;;;;;;5064524;28;20407;-70
2021/11/04 06:56:44;;;;;;;;;;;6.50;99.90;;;;;;5069175;28;19927;-69
2021/11/04 06:59:12;;;;;;;;;;;6.50;99.90;;;;;;5068747;28;20315;-70
2021/11/04 07:01:38;;;;;;;;;;;6.50;99.90;;;;;;5048950;28;19974;-70
2021/11/04 07:04:08;;;;;;;;;;;6.50;99.90;;;;;;5053495;28;19909;-70
2021/11/04 07:06:42;;;;;;;;;;;6.50;99.90;;;;;;5070885;28;19991;-70
2021/11/04 07:09:08;;;;;;;;;;;6.50;99.90;;;;;;5071035;28;19923;-69
2021/11/04 07:11:34;;;;;;;;;;;6.60;99.90;;;;;;5050262;28;19913;-70
2021/11/04 07:14:00;;;;;;;;;;;6.60;99.90;;;;;;5066339;28;19913;-70
2021/11/04 07:16:26;;;;;;;;;;;6.60;99.90;;;;;;5064298;28;20099;-70
2021/11/04 07:18:53;;;;;;;;;;;6.50;99.90;;;;;;5061929;28;20015;-70
2021/11/04 07:21:26;;;;;;;;;;;6.50;99.90;;;;;;5052045;28;19963;-70
2021/11/04 07:23:51;;;;;;;;;;;6.60;99.90;;;;;;5058909;28;19924;-70
2021/11/04 07:26:18;;;;;;;;;;;6.60;99.90;;;;;;5062209;28;19909;-70
2021/11/04 07:28:44;;;;;;;;;;;6.60;99.90;;;;;;5042749;28;19916;-70
2021/11/04 07:31:10;;;;;;;;;;;6.70;99.90;;;;;;5068308;28;19919;-70
2021/11/04 07:33:40;;;;;;;;;;;6.60;99.90;;;;;;5053852;28;19912;-70
2021/11/04 07:36:05;;;;;;;;;;;6.60;99.90;;;;;;5071474;28;19918;-70
2021/11/04 07:38:31;;;;;;;;;;;6.60;99.90;;;;;;5058858;28;19908;-70
2021/11/04 07:40:57;;;;;;;;;;;6.50;99.90;;;;;;5051045;28;19909;-70
2021/11/04 07:43:24;;;;;;;;;;;6.60;99.90;;;;;;5063057;28;19935;-69
2021/11/04 07:45:49;;;;;;;;;;;6.60;99.90;;;;;;5063054;28;19932;-69
2021/11/04 07:48:15;;;;;;;;;;;6.70;99.90;;;;;;5058798;28;19909;-70
2021/11/04 07:50:40;;;;;;;;;;;6.80;99.90;;;;;;5054773;28;19958;-70
2021/11/04 07:53:06;;;;;;;;;;;6.90;99.90;;;;;;5050649;28;19915;-70
2021/11/04 07:55:31;;;;;;;;;;;6.90;99.90;;;;;;5053603;28;19919;-69
2021/11/04 07:57:57;;;;;;;;;;;6.80;99.90;;;;;;5060584;28;20473;-70
2021/11/04 08:00:23;;;;;;;;;;;6.80;99.90;;;;;;5064126;28;20418;-70
2021/11/04 08:02:49;;;;;;;;;;;6.80;99.90;;;;;;5046029;28;19923;-70
2021/11/04 08:05:15;;;;;;;;;;;6.80;99.90;;;;;;5054826;28;19912;-69
2021/11/04 08:07:41;;;;;;;;;;;6.90;99.90;;;;;;5059597;28;20380;-70
2021/11/04 08:10:11;;;;;;;;;;;6.80;99.90;;;;;;5057095;28;19959;-70
2021/11/04 08:12:36;;;;;;;;;;;6.80;99.90;;;;;;5050781;28;20050;-70
2021/11/04 08:15:03;;;;;;;;;;;6.80;99.90;;;;;;5065944;28;20015;-70
2021/11/04 08:17:29;;;;;;;;;;;6.90;99.90;;;;;;5060228;28;19913;-70
2021/11/04 08:19:54;;;;;;;;;;;6.90;99.90;;;;;;5065661;28;19909;-70
2021/11/04 08:22:20;;;;;;;;;;;6.80;99.90;;;;;;5063469;28;19919;-70
2021/11/04 08:24:47;;;;;;;;;;;6.90;99.90;;;;;;5066138;28;19919;-70
2021/11/04 08:27:14;;;;;;;;;;;6.80;99.90;;;;;;5067570;28;19908;-69
2021/11/04 08:29:39;;;;;;;;;;;6.80;99.90;;;;;;5071503;28;20699;-70
2021/11/04 08:32:05;;;;;;;;;;;6.80;99.90;;;;;;5060058;28;19948;-70
2021/11/04 08:34:31;;;;;;;;;;;6.90;99.90;;;;;;5054123;28;19956;-69
2021/11/04 08:36:56;;;;;;;;;;;6.90;99.90;;;;;;5046539;28;19917;-70
2021/11/04 08:39:22;;;;;;;;;;;6.90;99.90;;;;;;5066019;28;20000;-70
2021/11/04 08:41:48;;;;;;;;;;;6.90;99.90;;;;;;5054217;28;19913;-70
2021/11/04 08:44:13;;;;;;;;;;;6.90;99.90;;;;;;5056809;28;19967;-70
2021/11/04 08:46:39;;;;;;;;;;;7.00;99.90;;;;;;5046436;28;19912;-70
2021/11/04 08:49:04;;;;;;;;;;;6.90;99.90;;;;;;5050005;28;20422;-70
2021/11/04 08:51:30;;;;;;;;;;;6.90;99.90;;;;;;5060182;28;20362;-70
2021/11/04 08:53:56;;;;;;;;;;;7.10;99.90;;;;;;5049047;28;19909;-70
2021/11/04 08:56:23;;;;;;;;;;;7.10;99.90;;;;;;5056647;28;20403;-70
2021/11/04 08:58:49;;;;;;;;;;;6.90;99.90;;;;;;5060768;28;19999;-69
2021/11/04 09:01:15;;;;;;;;;;;6.90;99.90;;;;;;5050731;28;19921;-70
2021/11/04 09:03:40;;;;;;;;;;;6.90;99.90;;;;;;5042200;28;20410;-69
2021/11/04 09:06:06;;;;;;;;;;;7.00;99.90;;;;;;5065037;28;19913;-70
2021/11/04 09:08:31;;;;;;;;;;;7.10;99.90;;;;;;5067415;28;19912;-70
2021/11/04 09:10:58;;;;;;;;;;;7.30;99.90;;;;;;5069088;28;20299;-70
2021/11/04 09:13:23;;;;;;;;;;;7.30;99.90;;;;;;5070691;28;19974;-70
2021/11/04 09:15:50;;;;;;;;;;;7.30;99.90;;;;;;5072423;28;19917;-70
2021/11/04 09:18:16;;;;;;;;;;;7.10;99.90;;;;;;5066022;28;19951;-70
2021/11/04 09:20:42;;;;;;;;;;;7.10;99.90;;;;;;5066947;28;20003;-70
2021/11/04 09:23:07;;;;;;;;;;;7.20;99.90;;;;;;5053517;28;20472;-70
2021/11/04 09:25:33;;;;;;;;;;;7.30;99.90;;;;;;5065546;28;19908;-70
2021/11/04 09:27:59;;;;;;;;;;;7.40;99.90;;;;;;5065226;28;20257;-70
2021/11/04 09:30:25;;;;;;;;;;;7.30;99.90;;;;;;5060916;28;19916;-70
2021/11/04 09:32:50;;;;;;;;;;;7.30;99.90;;;;;;5066278;28;19909;-70
2021/11/04 09:35:16;;;;;;;;;;;7.30;99.90;;;;;;5051038;28;20056;-70
2021/11/04 09:37:43;;;;;;;;;;;7.40;99.90;;;;;;5066877;28;19962;-70
2021/11/04 09:40:09;;;;;;;;;;;7.40;99.90;;;;;;5051925;28;19913;-71
2021/11/04 09:42:35;;;;;;;;;;;7.50;99.90;;;;;;5060913;28;19908;-70
2021/11/04 09:45:00;;;;;;;;;;;7.60;99.90;;;;;;5068456;28;19978;-70
2021/11/04 09:47:27;;;;;;;;;;;7.40;99.90;;;;;;5067400;28;19915;-71
2021/11/04 09:49:53;;;;;;;;;;;7.50;99.90;;;;;;5058481;28;20007;-70
2021/11/04 09:52:25;;;;;;;;;;;7.50;99.90;;;;;;5069684;28;19934;-70
2021/11/04 09:54:51;;;;;;;;;;;7.30;99.90;;;;;;5059081;28;20357;-69
2021/11/04 09:57:17;;;;;;;;;;;7.30;99.90;;;;;;5068887;28;19908;-72
2021/11/04 09:59:43;;;;;;;;;;;7.40;99.90;;;;;;5072917;28;19916;-72
2021/11/04 10:02:19;;;;;;;;;;;7.40;99.90;;;;;;5063741;28;19912;-71
2021/11/04 10:04:45;;;;;;;;;;;7.50;99.90;;;;;;5041275;28;19912;-72
2021/11/04 10:07:12;;;;;;;;;;;7.60;99.90;;;;;;5063936;28;19916;-70
2021/11/04 10:09:39;;;;;;;;;;;7.60;99.90;;;;;;5062900;28;19919;-69
2021/11/04 10:12:11;;;;;;;;;;;7.70;99.90;;;;;;5042774;28;20042;-70
2021/11/04 10:14:37;;;;;;;;;;;7.50;99.90;;;;;;5062253;28;20195;-71
2021/11/04 10:17:03;;;;;;;;;;;7.50;99.90;;;;;;5065354;28;19908;-72
2021/11/04 10:19:38;;;;;;;;;;;7.60;99.90;;;;;;5056672;28;19923;-72
2021/11/04 10:22:04;;;;;;;;;;;7.60;99.90;;;;;;5046548;28;20436;-70
2021/11/04 10:24:30;;;;;;;;;;;7.70;99.90;;;;;;5046795;28;19991;-72
2021/11/04 10:26:55;;;;;;;;;;;7.70;99.90;;;;;;5063070;28;20371;-70
2021/11/04 10:29:25;;;;;;;;;;;7.60;99.90;;;;;;5069001;28;19913;-70
2021/11/04 10:31:54;;;;;;;;;;;7.60;99.90;;;;;;5067860;28;20213;-70
2021/11/04 10:34:27;;;;;;;;;;;7.60;99.90;;;;;;5057703;28;19967;-69
2021/11/04 10:36:53;;;;;;;;;;;7.60;99.90;;;;;;5046699;28;19920;-69
2021/11/04 10:39:24;;;;;;;;;;;7.80;99.90;;;;;;5047019;28;19912;-70
2021/11/04 10:41:53;;;;;;;;;;;7.70;99.90;;;;;;5048763;28;19920;-69
2021/11/04 10:44:20;;;;;;;;;;;7.70;99.90;;;;;;5042787;28;20348;-69
2021/11/04 10:46:53;;;;;;;;;;;7.70;99.90;;;;;;5039469;28;20384;-69
2021/11/04 10:49:22;;;;;;;;;;;7.70;99.90;;;;;;5033290;28;19913;-70
2021/11/04 10:51:58;;;;;;;;;;;7.80;99.90;;;;;;5038202;28;19910;-69
2021/11/04 10:54:24;;;;;;;;;;;8.00;99.90;;;;;;5030637;28;19913;-69
2021/11/04 10:56:53;;;;;;;;;;;8.00;99.90;;;;;;5034262;28;19916;-70
2021/11/04 10:59:20;;;;;;;;;;;8.10;99.90;;;;;;5037890;28;19913;-70
2021/11/04 11:01:46;;;;;;;;;;;8.20;99.90;;;;;;5029661;28;19909;-70
2021/11/04 11:04:13;;;;;;;;;;;8.30;99.90;;;;;;5046097;28;19908;-70
2021/11/04 11:06:49;;;;;;;;;;;8.30;99.90;;;;;;5027700;28;19981;-71
2021/11/04 11:09:15;;;;;;;;;;;8.40;99.90;;;;;;5034461;28;19909;-72
2021/11/04 11:11:43;;;;;;;;;;;8.30;99.90;;;;;;5037123;28;19913;-72
2021/11/04 11:14:09;;;;;;;;;;;8.30;99.90;;;;;;5039947;28;19909;-72
2021/11/04 11:16:36;;;;;;;;;;;8.30;99.90;;;;;;5050142;28;20130;-71
2021/11/04 11:19:02;;;;;;;;;;;8.40;99.90;;;;;;5047782;28;20010;-71
2021/11/04 11:21:32;;;;;;;;;;;8.60;99.90;;;;;;5050020;28;20404;-70
2021/11/04 11:23:58;;;;;;;;;;;8.60;99.90;;;;;;5047496;28;20004;-70
2021/11/04 11:26:24;;;;;;;;;;;8.60;99.90;;;;;;5044062;28;20014;-70
2021/11/04 11:28:52;;;;;;;;;;;8.70;99.90;;;;;;5050637;28;19916;-70
2021/11/04 11:31:19;;;;;;;;;;;8.60;99.90;;;;;;5047974;28;19909;-70
2021/11/04 11:33:46;;;;;;;;;;;8.70;99.90;;;;;;5041965;28;19908;-70
2021/11/04 11:36:13;;;;;;;;;;;9.00;99.90;;;;;;5060743;28;19913;-70
2021/11/04 11:38:57;;;;;;;;;;;9.20;99.90;;;;;;5068751;28;19923;-71
2021/11/04 11:41:23;;;;;;;;;;;9.10;99.90;;;;;;5058125;28;19919;-71
2021/11/04 11:43:50;;;;;;;;;;;9.20;99.90;;;;;;5050227;28;20423;-71
2021/11/04 11:46:16;;;;;;;;;;;9.00;99.90;;;;;;5062662;28;20001;-70
2021/11/04 11:48:41;;;;;;;;;;;9.00;99.90;;;;;;5051843;28;19959;-70
2021/11/04 11:51:07;;;;;;;;;;;9.00;99.90;;;;;;5053922;28;20383;-71
2021/11/04 11:53:38;;;;;;;;;;;9.10;99.90;;;;;;5050684;28;20350;-70
2021/11/04 11:56:04;;;;;;;;;;;9.00;99.90;;;;;;5051587;28;19924;-71
2021/11/04 11:58:34;;;;;;;;;;;9.30;99.90;;;;;;5054129;28;20356;-71
2021/11/04 12:01:05;;;;;;;;;;;9.50;99.90;;;;;;5046856;28;19912;-71
2021/11/04 12:03:31;;;;;;;;;;;9.40;99.90;;;;;;5057198;28;20259;-71
2021/11/04 12:05:56;;;;;;;;;;;9.50;99.90;;;;;;5065117;28;19909;-71
2021/11/04 12:08:28;;;;;;;;;;;9.50;99.90;;;;;;5040471;28;19913;-71
2021/11/04 12:10:54;;;;;;;;;;;9.30;99.90;;;;;;5056891;28;19955;-70
2021/11/04 12:13:39;;;;;;;;;;;9.10;99.90;;;;;;5051647;28;20617;-70
2021/11/04 12:16:05;;;;;;;;;;;9.10;99.90;;;;;;5042812;28;19913;-71
2021/11/04 12:18:31;;;;;;;;;;;9.30;99.90;;;;;;5068120;28;20003;-71
2021/11/04 12:20:57;;;;;;;;;;;9.30;99.90;;;;;;5047878;28;20395;-71
2021/11/04 12:23:32;;;;;;;;;;;9.50;99.90;;;;;;5053126;28;20497;-71
2021/11/04 12:25:58;;;;;;;;;;;9.60;99.90;;;;;;5055642;28;19986;-71
2021/11/04 12:28:23;;;;;;;;;;;9.60;99.90;;;;;;5069485;28;19951;-71
2021/11/04 12:30:49;;;;;;;;;;;9.50;99.90;;;;;;5058211;28;20413;-71
2021/11/04 12:33:16;;;;;;;;;;;9.40;99.90;;;;;;5064137;28;20322;-70
2021/11/04 12:35:42;;;;;;;;;;;9.40;99.90;;;;;;5059429;28;20376;-71
2021/11/04 12:38:08;;;;;;;;;;;9.50;99.90;;;;;;5058254;28;20367;-71
2021/11/04 12:40:33;;;;;;;;;;;9.80;99.90;;;;;;5065734;28;19954;-71
2021/11/04 12:43:06;;;;;;;;;;;9.40;99.90;;;;;;5063757;28;20038;-70
2021/11/04 12:45:31;;;;;;;;;;;9.60;99.90;;;;;;5053732;28;19908;-71
2021/11/04 12:47:59;;;;;;;;;;;9.80;99.90;;;;;;5040462;28;19995;-71
2021/11/04 12:50:25;;;;;;;;;;;9.80;99.90;;;;;;5053604;28;19916;-71
2021/11/04 12:53:04;;;;;;;;;;;9.40;99.90;;;;;;5060767;28;20379;-70
2021/11/04 12:55:29;;;;;;;;;;;9.50;99.90;;;;;;5058284;28;20070;-71
2021/11/04 12:57:58;;;;;;;;;;;9.80;99.90;;;;;;5057168;28;19992;-71
2021/11/04 13:00:24;;;;;;;;;;;10.40;99.90;;;;;;5064838;28;20340;-71
2021/11/04 13:02:49;;;;;;;;;;;11.80;99.90;;;;;;5058049;28;19995;-71
2021/11/04 13:05:15;;;;;;;;;;;11.30;99.90;;;;;;5066299;28;19915;-71
2021/11/04 13:07:42;;;;;;;;;;;10.60;99.90;;;;;;5044404;28;19974;-71
2021/11/04 13:10:15;;;;;;;;;;;10.40;99.90;;;;;;5056277;28;20276;-71
2021/11/04 13:12:43;;;;;;;;;;;10.20;99.90;;;;;;5057865;28;19966;-71
2021/11/04 13:15:09;;;;;;;;;;;10.00;99.90;;;;;;5043261;28;19917;-71
2021/11/04 13:17:38;;;;;;;;;;;10.00;99.90;;;;;;5057881;28;20253;-71
2021/11/04 13:20:17;;;;;;;;;;;9.90;99.90;;;;;;5055010;28;19931;-71
2021/11/04 13:22:47;;;;;;;;;;;10.10;99.90;;;;;;5056319;28;19908;-71
2021/11/04 13:25:14;;;;;;;;;;;10.20;99.90;;;;;;5051626;28;19908;-71
2021/11/04 13:27:40;;;;;;;;;;;10.00;99.90;;;;;;5066411;28;19959;-71
2021/11/04 13:30:06;;;;;;;;;;;9.90;99.90;;;;;;5043122;28;19909;-71
2021/11/04 13:32:34;;;;;;;;;;;9.80;99.90;;;;;;5054623;28;19909;-71
2021/11/04 13:35:00;;;;;;;;;;;9.80;99.90;;;;;;5062671;28;19970;-71
2021/11/04 13:37:29;;;;;;;;;;;10.00;99.90;;;;;;5052278;28;19913;-71
2021/11/04 13:39:55;;;;;;;;;;;9.90;99.90;;;;;;5057509;28;19939;-71
2021/11/04 13:42:22;;;;;;;;;;;10.00;99.90;;;;;;5060143;28;19909;-71
2021/11/04 13:44:48;;;;;;;;;;;9.70;99.90;;;;;;5039382;28;19917;-71
2021/11/04 13:47:13;;;;;;;;;;;9.60;99.90;;;;;;5052559;28;20283;-71
2021/11/04 13:49:48;;;;;;;;;;;9.40;99.90;;;;;;5056442;28;19928;-71
2021/11/04 13:52:22;;;;;;;;;;;9.60;99.90;;;;;;5062028;28;19917;-71
2021/11/04 13:54:47;;;;;;;;;;;9.80;99.90;;;;;;5052562;28;20037;-71
2021/11/04 13:57:13;;;;;;;;;;;9.70;99.90;;;;;;5054463;28;20373;-71
2021/11/04 13:59:40;;;;;;;;;;;9.70;99.90;;;;;;5064141;28;19999;-71
2021/11/04 14:02:07;;;;;;;;;;;9.90;99.90;;;;;;5052754;28;19917;-71
2021/11/04 14:04:33;;;;;;;;;;;10.10;99.90;;;;;;5047879;28;19923;-71
2021/11/04 14:06:59;;;;;;;;;;;10.40;99.90;;;;;;5057986;28;20007;-71
2021/11/04 14:09:26;;;;;;;;;;;10.40;99.90;;;;;;5055767;28;19912;-71
2021/11/04 14:12:04;;;;;;;;;;;10.30;99.90;;;;;;5048930;28;19913;-71
2021/11/04 14:15:02;;;;;;;;;;;9.90;99.90;;;;;;5061214;28;19912;-71
2021/11/04 14:17:27;;;;;;;;;;;9.60;99.90;;;;;;5007287;28;20391;-71
2021/11/04 14:19:54;;;;;;;;;;;9.70;99.90;;;;;;5052916;28;19948;-71
2021/11/04 14:22:20;;;;;;;;;;;9.70;99.90;;;;;;5055540;28;20294;-71
2021/11/04 14:24:46;;;;;;;;;;;9.70;99.90;;;;;;5052024;28;19909;-71
2021/11/04 14:27:11;;;;;;;;;;;9.40;99.90;;;;;;5053155;28;19913;-71